createdAt,value
2019-02-23T00:01:32.349Z,13.40
2019-02-23T00:06:36.062Z,16.90
2019-02-23T00:11:39.825Z,15.67
2019-02-23T00:16:43.524Z,14.10
2019-02-23T00:21:47.585Z,14.83
2019-02-23T00:26:51.352Z,17.20
2019-02-23T00:31:55.102Z,19.13
2019-02-23T00:36:58.798Z,20.37
2019-02-23T00:42:02.467Z,20.40
2019-02-23T00:47:06.444Z,15.57
2019-02-23T00:52:10.547Z,18.13
2019-02-23T00:57:14.779Z,20.43
2019-02-23T01:02:18.491Z,19.80
2019-02-23T01:07:22.623Z,17.37
2019-02-23T01:12:26.352Z,19.07
2019-02-23T01:17:30.153Z,17.67
2019-02-23T01:22:34.169Z,18.23
2019-02-23T01:27:37.863Z,16.57
2019-02-23T01:32:41.831Z,18.13
2019-02-23T01:37:45.604Z,17.97
2019-02-23T01:42:49.436Z,20.60
2019-02-23T01:47:53.731Z,15.13
2019-02-23T01:52:57.487Z,18.67
2019-02-23T01:58:01.251Z,19.73
2019-02-23T02:03:05.485Z,20.00
2019-02-23T02:08:09.615Z,15.67
2019-02-23T02:13:13.443Z,18.87
2019-02-23T02:18:17.166Z,16.83
2019-02-23T02:23:21.178Z,21.53
2019-02-23T02:28:24.871Z,17.40
2019-02-23T02:33:28.639Z,18.60
2019-02-23T02:38:32.300Z,17.53
2019-02-23T02:43:36.092Z,17.10
2019-02-23T02:48:39.911Z,16.03
2019-02-23T02:53:43.876Z,16.00
2019-02-23T02:58:47.867Z,20.80
2019-02-23T03:03:51.556Z,21.03
2019-02-23T03:08:55.270Z,16.67
2019-02-23T03:13:59.033Z,17.83
2019-02-23T03:19:03.002Z,19.63
2019-02-23T03:24:06.700Z,18.37
2019-02-23T03:29:10.571Z,20.73
2019-02-23T03:34:14.381Z,21.67
2019-02-23T03:39:18.377Z,19.13
2019-02-23T03:44:22.415Z,16.43
2019-02-23T03:49:26.122Z,20.63
2019-02-23T03:54:29.819Z,18.93
2019-02-23T03:59:33.563Z,19.63
2019-02-23T04:04:37.556Z,15.67
2019-02-23T04:09:41.533Z,18.20
2019-02-23T04:14:45.567Z,16.87
2019-02-23T04:19:49.641Z,16.17
2019-02-23T04:24:56.215Z,14.67
2019-02-23T04:29:59.908Z,20.63
2019-02-23T04:35:03.586Z,17.37
2019-02-23T04:40:07.579Z,16.97
2019-02-23T04:45:11.305Z,17.53
2019-02-23T04:50:15.061Z,17.47
2019-02-23T04:55:19.085Z,17.77
2019-02-23T05:00:22.782Z,16.50
2019-02-23T05:05:26.454Z,18.60
2019-02-23T05:10:30.425Z,14.50
2019-02-23T05:15:34.113Z,21.37
2019-02-23T05:20:37.791Z,13.27
2019-02-23T05:25:41.486Z,19.07
2019-02-23T05:30:45.424Z,18.93
2019-02-23T05:35:49.339Z,18.57
2019-02-23T05:40:53.029Z,18.23
2019-02-23T05:45:56.767Z,21.40
2019-02-23T05:51:00.537Z,18.20
2019-02-23T05:56:04.231Z,20.53
2019-02-23T06:01:07.913Z,15.93
2019-02-23T06:06:11.605Z,20.20
2019-02-23T06:11:15.281Z,16.77
2019-02-23T06:16:19.171Z,14.07
2019-02-23T06:21:22.853Z,14.83
2019-02-23T06:26:26.617Z,20.17
2019-02-23T06:31:30.320Z,15.73
2019-02-23T06:36:34.307Z,13.10
2019-02-23T06:41:38.039Z,21.00
2019-02-23T06:46:41.789Z,19.23
2019-02-23T06:51:45.443Z,22.77
2019-02-23T06:56:49.117Z,15.70
2019-02-23T07:01:52.823Z,17.50
2019-02-23T07:06:56.828Z,16.37
2019-02-23T07:12:00.750Z,17.03
2019-02-23T07:17:05.247Z,15.53
2019-02-23T07:22:15.474Z,17.73
2019-02-23T07:27:14.673Z,17.30
2019-02-23T07:32:18.332Z,15.40
2019-02-23T07:37:22.332Z,18.13
2019-02-23T07:42:26.040Z,20.07
2019-02-23T07:47:29.736Z,18.80
2019-02-23T07:52:33.775Z,16.53
2019-02-23T07:57:37.722Z,17.93
2019-02-23T08:02:41.682Z,15.10
2019-02-23T08:07:45.461Z,13.20
2019-02-23T08:12:49.269Z,14.20
2019-02-23T08:17:53.241Z,13.53
2019-02-23T08:22:56.943Z,14.70
2019-02-23T08:28:00.655Z,15.30
2019-02-23T08:33:04.622Z,19.10
2019-02-23T08:38:08.633Z,14.47
2019-02-23T08:43:12.367Z,13.57
2019-02-23T08:48:16.090Z,17.10
2019-02-23T08:53:19.853Z,15.80
2019-02-23T08:58:23.559Z,19.17
2019-02-23T09:03:27.232Z,19.17
2019-02-23T09:08:31.244Z,16.60
2019-02-23T09:13:35.060Z,22.93
2019-02-23T09:18:38.802Z,19.80
2019-02-23T09:23:42.556Z,14.03
2019-02-23T09:28:46.251Z,15.90
2019-02-23T09:33:49.956Z,14.90
2019-02-23T09:38:53.656Z,12.97
2019-02-23T09:43:57.977Z,14.60
2019-02-23T09:49:01.649Z,15.13
2019-02-23T09:54:05.878Z,14.47
2019-02-23T09:59:09.641Z,14.90
2019-02-23T10:04:13.940Z,14.70
2019-02-23T10:09:17.860Z,12.30
2019-02-23T10:14:24.742Z,12.93
2019-02-23T10:19:29.658Z,11.13
2019-02-23T10:24:33.446Z,11.43
2019-02-23T10:29:37.788Z,12.13
2019-02-23T10:34:41.477Z,11.07
2019-02-23T10:39:45.236Z,11.57
2019-02-23T10:44:49.243Z,9.10
2019-02-23T10:49:52.948Z,9.83
2019-02-23T10:54:56.670Z,11.47
2019-02-23T11:00:00.521Z,11.67
2019-02-23T11:05:05.558Z,8.40
2019-02-23T11:10:09.747Z,7.27
2019-02-23T11:15:14.330Z,8.23
2019-02-23T11:20:18.218Z,8.70
2019-02-23T11:25:22.285Z,6.23
2019-02-23T11:30:26.353Z,6.97
2019-02-23T11:35:30.037Z,7.30
2019-02-23T11:40:33.738Z,5.37
2019-02-23T11:45:37.440Z,5.57
2019-02-23T11:50:41.123Z,7.07
2019-02-23T11:55:44.852Z,7.13
2019-02-23T12:00:48.811Z,6.13
2019-02-23T12:05:52.565Z,6.83
2019-02-23T12:10:56.303Z,6.30
2019-02-23T12:16:00.616Z,5.27
2019-02-23T12:21:04.318Z,4.20
2019-02-23T12:26:08.742Z,4.73
2019-02-23T12:31:12.446Z,7.10
2019-02-23T12:36:16.145Z,5.50
2019-02-23T12:41:20.109Z,5.97
2019-02-23T12:46:24.083Z,5.77
2019-02-23T12:51:28.065Z,6.87
2019-02-23T12:56:31.774Z,5.50
2019-02-23T13:01:35.457Z,7.17
2019-02-23T13:06:39.152Z,6.57
2019-02-23T13:11:45.239Z,7.23
2019-02-23T13:17:05.746Z,6.97
2019-02-23T13:22:39.063Z,9.73
2019-02-23T13:28:05.665Z,7.87
2019-02-23T13:33:34.371Z,7.63
2019-02-23T13:39:23.067Z,7.17
2019-02-23T13:44:51.857Z,6.93
2019-02-23T13:50:34.510Z,8.00
2019-02-23T13:56:03.763Z,10.20
2019-02-23T14:01:49.985Z,7.60
2019-02-23T14:07:24.334Z,8.97
2019-02-23T14:12:44.888Z,8.13
2019-02-23T14:18:15.111Z,6.47
2019-02-23T14:24:00.202Z,8.17
2019-02-23T14:29:28.587Z,7.07
2019-02-23T14:34:48.123Z,11.17
2019-02-23T14:40:33.790Z,7.00
2019-02-23T14:45:44.679Z,8.37
2019-02-23T14:51:26.867Z,9.13
2019-02-23T14:56:59.044Z,11.87
2019-02-23T15:02:29.711Z,14.40
2019-02-23T15:08:11.473Z,13.83
2019-02-23T15:13:39.887Z,16.30
2019-02-23T15:19:11.455Z,12.50
2019-02-23T15:24:53.216Z,12.80
2019-02-23T15:30:35.045Z,12.20
2019-02-23T15:36:12.484Z,12.53
2019-02-23T15:41:30.970Z,11.37
2019-02-23T15:47:21.186Z,12.77
2019-02-23T15:52:24.935Z,15.83
2019-02-23T15:57:28.723Z,15.27
2019-02-23T16:02:32.422Z,16.67
2019-02-23T16:07:36.133Z,16.83
2019-02-23T16:12:39.988Z,15.10
2019-02-23T16:17:43.818Z,14.97
2019-02-23T16:23:06.779Z,14.23
2019-02-23T16:28:10.769Z,14.23
2019-02-23T16:33:14.965Z,19.30
2019-02-23T16:38:18.660Z,22.40
2019-02-23T16:43:22.428Z,17.77
2019-02-23T16:48:26.134Z,21.77
2019-02-23T16:53:29.854Z,17.53
2019-02-23T16:58:33.602Z,22.57
2019-02-23T17:03:37.554Z,23.53
2019-02-23T17:08:41.282Z,21.83
2019-02-23T17:13:45.071Z,21.97
2019-02-23T17:18:49.951Z,22.37
2019-02-23T17:23:53.935Z,20.03
2019-02-23T17:28:57.632Z,20.97
2019-02-23T17:34:01.498Z,23.70
2019-02-23T17:39:06.041Z,38.40
2019-02-23T17:44:09.935Z,21.80
2019-02-23T17:49:13.691Z,18.57
2019-02-23T17:54:17.661Z,22.10
2019-02-23T17:59:21.833Z,18.43
2019-02-23T18:04:25.559Z,31.50
2019-02-23T18:09:29.273Z,32.67
2019-02-23T18:14:34.213Z,21.53
2019-02-23T18:19:37.989Z,26.80
2019-02-23T18:24:41.724Z,29.77
2019-02-23T18:29:45.473Z,28.47
2019-02-23T18:34:49.183Z,16.83
2019-02-23T18:39:53.703Z,16.77
2019-02-23T18:44:57.781Z,20.63
2019-02-23T18:50:01.727Z,16.80
2019-02-23T18:55:05.852Z,18.60
2019-02-23T19:00:10.763Z,15.63
2019-02-23T19:05:14.761Z,19.80
2019-02-23T19:10:18.502Z,14.23
2019-02-23T19:15:22.242Z,13.53
2019-02-23T19:20:26.024Z,14.00
2019-02-23T19:25:29.716Z,14.87
2019-02-23T19:31:08.140Z,14.07
2019-02-23T19:36:11.851Z,15.57
2019-02-23T19:41:15.677Z,17.23
2019-02-23T19:46:19.516Z,17.13
2019-02-23T19:51:23.483Z,17.90
2019-02-23T19:56:27.837Z,20.70
2019-02-23T20:01:31.698Z,21.83
2019-02-23T20:06:35.713Z,20.13
2019-02-23T20:11:39.435Z,19.00
2019-02-23T20:16:44.443Z,15.37
2019-02-23T20:21:48.465Z,17.57
2019-02-23T20:26:55.623Z,16.37
2019-02-23T20:31:57.645Z,16.57
2019-02-23T20:37:01.747Z,15.53
2019-02-23T20:42:05.557Z,16.33
2019-02-23T20:47:09.585Z,17.80
2019-02-23T20:52:13.357Z,20.87
2019-02-23T20:57:17.112Z,21.07
2019-02-23T21:02:21.184Z,20.90
2019-02-23T21:07:27.379Z,19.33
2019-02-23T21:12:31.152Z,18.90
2019-02-23T21:17:35.120Z,18.37
2019-02-23T21:22:38.892Z,20.80
2019-02-23T21:27:42.942Z,17.00
2019-02-23T21:32:47.702Z,17.90
2019-02-23T21:37:51.658Z,14.47
2019-02-23T21:42:56.375Z,16.87
2019-02-23T21:48:00.429Z,17.97
2019-02-23T21:53:04.210Z,20.63
2019-02-23T21:58:07.993Z,17.37
2019-02-23T22:03:12.239Z,18.50
2019-02-23T22:08:16.094Z,18.07
2019-02-23T22:13:19.848Z,17.83
2019-02-23T22:18:23.862Z,20.40
2019-02-23T22:23:27.731Z,22.90
2019-02-23T22:28:31.452Z,19.27
2019-02-23T22:33:35.488Z,19.70
2019-02-23T22:38:39.188Z,20.13
2019-02-23T22:43:43.153Z,17.27
2019-02-23T22:48:46.813Z,21.70
2019-02-23T22:53:50.595Z,24.43
2019-02-23T22:58:54.661Z,17.33
2019-02-23T23:03:58.913Z,25.00
2019-02-23T23:09:03.516Z,16.57
2019-02-23T23:14:07.473Z,19.43
2019-02-23T23:19:11.291Z,16.47
2019-02-23T23:24:15.222Z,19.03
2019-02-23T23:29:18.899Z,18.53
2019-02-23T23:34:22.590Z,19.97
2019-02-23T23:39:28.023Z,20.90
2019-02-23T23:44:31.772Z,22.47
2019-02-23T23:49:35.436Z,25.20
2019-02-23T23:54:39.144Z,24.27
2019-02-23T23:59:42.879Z,21.70
